X  SluitMETAR luchtvaart weer gegevens      EHDL Deelen Air Base

Temperatuur

25°C Temperatuur

6°C Dauwpunt

30% Vochtigheid



Wind

26 KM/U

16 MPH

 7 M/S

14 KTS



160°
Zuid Zuid
Oost
Huidig weer

Wat bewolking Wat bewolking
Luchtdruk 997.92 (hPa) - 29.47 (in)
Zicht 6.2 (mi) - 10 (km)
Vliegveld
Vliegveld code EHDL

Locatie Deelen Air Base 14 (km)

Metar:
EHDL 241325Z AUTO 16014G24KT 100V230 9999 FEW069 SCT083 BKN230 25/06 Q0998 BLU

Tijd: 2019-04-24 15:25